createdAt,value
2022-11-19T00:02:07.306Z,8.10
2022-11-19T00:04:35.088Z,8.90
2022-11-19T00:07:04.175Z,11.98
2022-11-19T00:09:31.870Z,6.88
2022-11-19T00:12:17.848Z,13.35
2022-11-19T00:14:45.471Z,9.90
2022-11-19T00:17:13.207Z,9.35
2022-11-19T00:19:40.856Z,13.68
2022-11-19T00:22:08.594Z,13.10
2022-11-19T00:24:36.398Z,7.60
2022-11-19T00:27:04.288Z,12.40
2022-11-19T00:29:32.126Z,11.95
2022-11-19T00:31:59.877Z,14.10
2022-11-19T00:34:27.486Z,8.80
2022-11-19T00:36:55.197Z,10.77
2022-11-19T00:39:23.156Z,10.55
2022-11-19T00:41:50.887Z,12.57
2022-11-19T00:44:18.678Z,9.27
2022-11-19T00:46:49.001Z,10.38
2022-11-19T00:49:16.865Z,11.70
2022-11-19T00:51:44.713Z,10.60
2022-11-19T00:54:12.361Z,9.10
2022-11-19T00:56:40.127Z,10.95
2022-11-19T00:59:07.884Z,7.30
2022-11-19T01:01:35.888Z,7.20
2022-11-19T01:04:03.636Z,9.88
2022-11-19T01:06:31.287Z,9.15
2022-11-19T01:08:59.247Z,15.23
2022-11-19T01:11:32.384Z,10.93
2022-11-19T01:14:04.212Z,16.15
2022-11-19T01:16:38.254Z,11.52
2022-11-19T01:19:08.616Z,11.07
2022-11-19T01:21:37.123Z,13.57
2022-11-19T01:24:05.829Z,8.15
2022-11-19T01:26:33.574Z,10.98
2022-11-19T01:29:01.497Z,12.93
2022-11-19T01:31:30.299Z,8.00
2022-11-19T01:33:58.893Z,6.95
2022-11-19T01:36:29.216Z,9.63
2022-11-19T01:38:58.227Z,8.00
2022-11-19T01:41:31.985Z,8.15
2022-11-19T01:44:02.775Z,8.88
2022-11-19T01:46:36.262Z,10.55
2022-11-19T01:49:36.761Z,11.30
2022-11-19T01:52:05.642Z,9.85
2022-11-19T01:54:48.207Z,11.23
2022-11-19T01:57:18.014Z,14.70
2022-11-19T01:59:49.569Z,13.00
2022-11-19T02:02:20.299Z,8.50
2022-11-19T02:04:51.864Z,5.85
2022-11-19T02:07:26.463Z,11.82
2022-11-19T02:09:54.427Z,10.98
2022-11-19T02:12:38.917Z,7.15
2022-11-19T02:15:38.720Z,7.43
2022-11-19T02:18:34.121Z,10.50
2022-11-19T02:21:11.698Z,10.57
2022-11-19T02:23:57.334Z,8.20
2022-11-19T02:26:49.750Z,7.00
2022-11-19T02:29:48.385Z,7.95
2022-11-19T02:32:25.743Z,13.07
2022-11-19T02:35:09.185Z,10.00
2022-11-19T02:38:04.266Z,13.02
2022-11-19T02:40:42.048Z,11.45
2022-11-19T02:43:36.102Z,6.20
2022-11-19T02:46:11.059Z,8.45
2022-11-19T02:48:50.064Z,6.88
2022-11-19T02:51:18.865Z,12.43
2022-11-19T02:53:49.648Z,8.75
2022-11-19T02:56:55.497Z,10.88
2022-11-19T03:00:05.150Z,8.18
2022-11-19T03:02:57.657Z,7.88
2022-11-19T03:05:29.630Z,7.63
2022-11-19T03:07:57.453Z,9.65
2022-11-19T03:10:30.816Z,11.82
2022-11-19T03:13:29.128Z,8.82
2022-11-19T03:16:17.312Z,11.00
2022-11-19T03:18:53.605Z,9.80
2022-11-19T03:21:28.351Z,8.43
2022-11-19T03:24:02.944Z,9.25
2022-11-19T03:26:35.827Z,7.63
2022-11-19T03:29:08.713Z,9.75
2022-11-19T03:31:38.567Z,5.90
2022-11-19T03:34:14.805Z,7.93
2022-11-19T03:36:45.187Z,8.10
2022-11-19T03:39:16.668Z,8.88
2022-11-19T03:41:48.325Z,8.00
2022-11-19T03:44:30.622Z,9.60
2022-11-19T03:47:16.170Z,7.47
2022-11-19T03:49:48.578Z,8.48
2022-11-19T03:52:21.864Z,5.70
2022-11-19T03:54:49.831Z,5.70
2022-11-19T03:57:20.470Z,7.85
2022-11-19T03:59:48.261Z,12.23
2022-11-19T04:02:16.583Z,9.07
2022-11-19T04:04:44.265Z,14.63
2022-11-19T04:07:18.399Z,8.15
2022-11-19T04:09:46.804Z,14.20
2022-11-19T04:12:20.078Z,7.57
2022-11-19T04:14:48.352Z,9.88
2022-11-19T04:17:17.189Z,7.85
2022-11-19T04:19:45.014Z,8.25
2022-11-19T04:22:12.939Z,7.05
2022-11-19T04:24:40.770Z,11.35
2022-11-19T04:27:08.588Z,12.20
2022-11-19T04:29:36.415Z,9.65
2022-11-19T04:32:04.227Z,10.35
2022-11-19T04:34:31.915Z,13.52
2022-11-19T04:36:59.682Z,12.15
2022-11-19T04:39:27.503Z,9.57
2022-11-19T04:41:55.123Z,7.57
2022-11-19T04:44:22.946Z,13.15
2022-11-19T04:46:50.605Z,11.00
2022-11-19T04:49:18.653Z,10.88
2022-11-19T04:51:46.515Z,12.13
2022-11-19T04:54:14.352Z,10.88
2022-11-19T04:56:41.962Z,11.00
2022-11-19T04:59:09.580Z,10.27
2022-11-19T05:01:37.269Z,12.85
2022-11-19T05:04:05.268Z,9.13
2022-11-19T05:06:33.710Z,9.68
2022-11-19T05:09:01.490Z,11.35
2022-11-19T05:11:29.242Z,11.40
2022-11-19T05:13:56.975Z,13.85
2022-11-19T05:16:24.789Z,11.50
2022-11-19T05:18:52.383Z,7.13
2022-11-19T05:21:20.146Z,11.18
2022-11-19T05:23:47.966Z,14.30
2022-11-19T05:26:15.665Z,14.25
2022-11-19T05:28:43.397Z,13.07
2022-11-19T05:31:11.086Z,12.20
2022-11-19T05:33:38.727Z,12.30
2022-11-19T05:36:07.139Z,14.07
2022-11-19T05:38:35.048Z,12.13
2022-11-19T05:41:03.289Z,10.02
2022-11-19T05:43:31.133Z,9.75
2022-11-19T05:46:03.209Z,8.02
2022-11-19T05:48:30.893Z,10.32
2022-11-19T05:50:58.838Z,10.30
2022-11-19T05:53:27.389Z,7.60
2022-11-19T05:55:55.077Z,8.13
2022-11-19T05:58:22.811Z,8.30
2022-11-19T06:00:55.332Z,11.98
2022-11-19T06:03:23.128Z,6.03
2022-11-19T06:05:51.016Z,15.57
2022-11-19T06:08:18.996Z,12.02
2022-11-19T06:10:46.778Z,12.18
2022-11-19T06:13:14.504Z,6.82
2022-11-19T06:15:42.170Z,11.25
2022-11-19T06:18:09.910Z,11.90
2022-11-19T06:20:37.678Z,9.00
2022-11-19T06:23:05.552Z,7.18
2022-11-19T06:25:33.236Z,12.35
2022-11-19T06:28:00.973Z,11.30
2022-11-19T06:30:28.769Z,14.52
2022-11-19T06:32:56.802Z,12.80
2022-11-19T06:35:24.514Z,15.27
2022-11-19T06:37:52.427Z,16.35
2022-11-19T06:40:20.095Z,9.85
2022-11-19T06:42:50.925Z,12.05
2022-11-19T06:45:19.053Z,10.35
2022-11-19T06:47:49.554Z,12.15
2022-11-19T06:50:18.311Z,11.75
2022-11-19T06:52:46.042Z,8.20
2022-11-19T06:55:17.221Z,16.52
2022-11-19T06:57:44.899Z,11.35
2022-11-19T07:00:13.401Z,10.15
2022-11-19T07:02:41.338Z,14.05
2022-11-19T07:05:09.276Z,13.63
2022-11-19T07:07:37.020Z,12.68
2022-11-19T07:10:05.344Z,9.32
2022-11-19T07:12:32.918Z,6.82
2022-11-19T07:15:04.307Z,15.77
2022-11-19T07:17:32.713Z,10.52
2022-11-19T07:20:00.446Z,10.55
2022-11-19T07:22:28.262Z,13.68
2022-11-19T07:24:55.950Z,14.90
2022-11-19T07:27:23.682Z,16.45
2022-11-19T07:29:51.473Z,14.05
2022-11-19T07:32:19.161Z,16.42
2022-11-19T07:34:47.036Z,14.27
2022-11-19T07:37:15.040Z,15.77
2022-11-19T07:39:42.769Z,15.20
2022-11-19T07:42:28.929Z,14.38
2022-11-19T07:44:56.627Z,7.88
2022-11-19T07:47:24.301Z,10.95
2022-11-19T07:49:52.149Z,8.13
2022-11-19T07:52:20.017Z,13.13
2022-11-19T07:54:48.124Z,10.60
2022-11-19T07:57:15.776Z,12.70
2022-11-19T07:59:43.632Z,10.63
2022-11-19T08:02:12.676Z,12.85
2022-11-19T08:04:40.616Z,11.80
2022-11-19T08:07:08.941Z,10.20
2022-11-19T08:09:36.983Z,5.40
2022-11-19T08:12:04.906Z,13.88
2022-11-19T08:14:32.629Z,10.43
2022-11-19T08:17:18.713Z,7.43
2022-11-19T08:19:46.519Z,10.95
2022-11-19T08:22:14.308Z,12.35
2022-11-19T08:24:41.961Z,8.45
2022-11-19T08:27:09.561Z,11.07
2022-11-19T08:29:37.376Z,14.23
2022-11-19T08:32:05.263Z,14.48
2022-11-19T08:34:33.383Z,15.65
2022-11-19T08:37:01.378Z,10.05
2022-11-19T08:39:29.598Z,5.03
2022-11-19T08:42:15.541Z,7.95
2022-11-19T08:44:43.412Z,8.02
2022-11-19T08:47:12.147Z,9.20
2022-11-19T08:49:41.452Z,11.73
2022-11-19T08:52:10.182Z,7.25
2022-11-19T08:54:37.918Z,13.35
2022-11-19T08:57:06.760Z,7.28
2022-11-19T08:59:34.521Z,7.05
2022-11-19T09:02:02.282Z,4.00
2022-11-19T09:04:29.880Z,13.43
2022-11-19T09:06:58.010Z,12.95
2022-11-19T09:09:25.736Z,9.82
2022-11-19T09:11:55.628Z,8.63
2022-11-19T09:14:23.365Z,13.57
2022-11-19T09:16:51.221Z,13.30
2022-11-19T09:19:19.328Z,8.15
2022-11-19T09:21:47.187Z,8.82
2022-11-19T09:24:15.004Z,8.10
2022-11-19T09:26:52.988Z,7.43
2022-11-19T09:29:21.150Z,9.57
2022-11-19T09:31:49.662Z,10.32
2022-11-19T09:34:18.050Z,8.30
2022-11-19T09:36:46.370Z,12.77
2022-11-19T09:39:14.387Z,6.95
2022-11-19T09:42:14.152Z,11.60
2022-11-19T09:45:03.207Z,6.85
2022-11-19T09:47:56.441Z,9.68
2022-11-19T09:50:28.773Z,9.82
2022-11-19T09:53:07.478Z,9.10
2022-11-19T09:55:38.129Z,6.72
2022-11-19T09:58:34.405Z,8.48
2022-11-19T10:01:17.579Z,8.00
2022-11-19T10:03:50.701Z,12.95
2022-11-19T10:06:38.445Z,6.85
2022-11-19T10:12:15.925Z,10.18
2022-11-19T10:15:06.428Z,8.30
2022-11-19T10:18:00.326Z,10.80
2022-11-19T10:20:50.242Z,7.15
2022-11-19T10:23:23.339Z,8.60
2022-11-19T10:25:59.519Z,4.95
2022-11-19T10:28:31.134Z,12.45
2022-11-19T10:31:16.616Z,5.15
2022-11-19T10:33:59.774Z,10.68
2022-11-19T10:36:44.709Z,4.15
2022-11-19T10:39:18.857Z,9.77
2022-11-19T10:42:03.402Z,5.70
2022-11-19T10:44:46.807Z,8.93
2022-11-19T10:47:22.657Z,8.48
2022-11-19T10:49:54.829Z,6.70
2022-11-19T10:52:27.795Z,4.13
2022-11-19T10:55:12.744Z,5.75
2022-11-19T10:57:41.321Z,9.77
2022-11-19T11:00:09.815Z,6.15
2022-11-19T11:02:42.958Z,7.90
2022-11-19T11:05:18.804Z,9.38
2022-11-19T11:07:50.359Z,8.27
2022-11-19T11:10:29.520Z,8.85
2022-11-19T11:13:43.340Z,7.32
2022-11-19T11:16:15.925Z,6.07
2022-11-19T11:18:44.205Z,8.07
2022-11-19T11:21:35.053Z,4.43
2022-11-19T11:26:34.155Z,5.57
2022-11-19T11:29:01.917Z,6.45
2022-11-19T11:31:38.486Z,6.35
2022-11-19T11:34:27.828Z,5.63
2022-11-19T11:36:56.666Z,6.10
2022-11-19T11:39:38.660Z,6.07
2022-11-19T11:42:17.603Z,6.10
2022-11-19T11:44:53.888Z,6.13
2022-11-19T11:47:27.178Z,4.57
2022-11-19T11:50:21.893Z,9.27
2022-11-19T11:52:53.371Z,10.45
2022-11-19T11:55:24.062Z,9.45
2022-11-19T11:57:53.378Z,5.28
2022-11-19T12:00:38.503Z,8.15
2022-11-19T12:03:08.234Z,11.40
2022-11-19T12:06:05.387Z,6.28
2022-11-19T12:08:54.220Z,10.00
2022-11-19T12:11:55.121Z,7.78
2022-11-19T12:14:37.038Z,8.45
2022-11-19T12:17:26.513Z,11.10
2022-11-19T12:20:09.300Z,6.75
2022-11-19T12:22:51.999Z,8.50
2022-11-19T12:25:24.841Z,7.50
2022-11-19T12:28:15.673Z,8.48
2022-11-19T12:31:13.767Z,9.32
2022-11-19T12:36:30.128Z,11.65
2022-11-19T12:39:00.594Z,5.75
2022-11-19T12:41:31.263Z,7.68
2022-11-19T12:44:01.338Z,11.90
2022-11-19T12:46:58.340Z,6.00
2022-11-19T12:49:31.902Z,7.63
2022-11-19T12:52:30.376Z,9.52
2022-11-19T12:55:36.688Z,7.60
2022-11-19T12:58:29.100Z,9.52
2022-11-19T13:01:10.030Z,9.80
2022-11-19T13:03:58.985Z,9.55
2022-11-19T13:06:33.535Z,10.40
2022-11-19T13:09:07.404Z,10.75
2022-11-19T13:11:39.607Z,7.20
2022-11-19T13:14:20.575Z,13.15
2022-11-19T13:16:48.767Z,9.55
2022-11-19T13:19:18.536Z,11.75
2022-11-19T13:21:58.544Z,8.80
2022-11-19T13:25:00.362Z,8.35
2022-11-19T13:27:30.691Z,8.75
2022-11-19T13:30:03.646Z,5.53
2022-11-19T13:32:52.944Z,7.78
2022-11-19T13:35:48.519Z,6.50
2022-11-19T13:38:45.425Z,11.98
2022-11-19T13:41:28.683Z,7.47
2022-11-19T13:44:16.212Z,10.15
2022-11-19T13:46:55.214Z,4.85
2022-11-19T13:49:23.113Z,8.18
2022-11-19T13:52:09.949Z,6.13
2022-11-19T13:54:40.806Z,5.33
2022-11-19T13:57:22.682Z,7.05
2022-11-19T13:59:56.145Z,4.93
2022-11-19T14:02:57.064Z,5.90
2022-11-19T14:05:52.448Z,4.72
2022-11-19T14:08:47.143Z,3.53
2022-11-19T14:11:45.298Z,4.25
2022-11-19T14:17:55.222Z,5.43
2022-11-19T14:21:02.550Z,7.07
2022-11-19T14:24:08.291Z,10.40
2022-11-19T14:26:42.201Z,4.75
2022-11-19T14:29:19.434Z,12.70
2022-11-19T14:32:11.612Z,8.23
2022-11-19T14:34:42.608Z,6.82
2022-11-19T14:37:13.266Z,9.48
2022-11-19T14:39:50.661Z,6.78
2022-11-19T14:42:21.280Z,9.13
2022-11-19T14:45:06.939Z,12.27
2022-11-19T14:47:41.613Z,10.35
2022-11-19T14:50:30.966Z,10.48
2022-11-19T14:53:02.361Z,8.30
2022-11-19T14:55:33.168Z,8.55
2022-11-19T14:58:14.357Z,10.77
2022-11-19T15:00:43.109Z,7.85
2022-11-19T15:03:21.509Z,12.07
2022-11-19T15:05:52.415Z,8.85
2022-11-19T15:08:20.266Z,5.78
2022-11-19T15:11:05.361Z,13.30
2022-11-19T15:13:35.483Z,12.15
2022-11-19T15:16:19.364Z,10.55
2022-11-19T15:19:05.142Z,8.27
2022-11-19T15:21:41.788Z,8.82
2022-11-19T15:24:42.225Z,9.30
2022-11-19T15:27:39.959Z,8.25
2022-11-19T15:30:20.924Z,8.38
2022-11-19T15:33:27.442Z,11.32
2022-11-19T15:36:19.237Z,10.10
2022-11-19T15:39:10.052Z,10.32
2022-11-19T15:41:44.093Z,10.23
2022-11-19T15:44:18.116Z,12.48
2022-11-19T15:46:50.394Z,11.90
2022-11-19T15:49:26.364Z,8.90
2022-11-19T15:52:11.857Z,9.63
2022-11-19T15:54:44.065Z,11.18
2022-11-19T15:57:20.976Z,11.45
2022-11-19T16:02:27.506Z,11.23
2022-11-19T16:04:56.001Z,13.25
2022-11-19T16:07:27.132Z,14.27
2022-11-19T16:09:55.517Z,10.00
2022-11-19T16:12:47.156Z,18.33
2022-11-19T16:15:40.773Z,11.25
2022-11-19T16:18:16.566Z,5.40
2022-11-19T16:20:47.925Z,8.90
2022-11-19T16:23:24.347Z,12.35
2022-11-19T16:25:54.676Z,10.25
2022-11-19T16:28:30.657Z,13.52
2022-11-19T16:31:04.049Z,10.85
2022-11-19T16:33:33.448Z,15.30
2022-11-19T16:36:15.961Z,13.55
2022-11-19T16:38:49.109Z,12.48
2022-11-19T16:41:37.585Z,15.93
2022-11-19T16:44:11.600Z,10.18
2022-11-19T16:46:39.624Z,11.73
2022-11-19T16:49:39.399Z,12.35
2022-11-19T16:52:10.258Z,10.27
2022-11-19T16:54:49.211Z,12.85
2022-11-19T16:57:25.786Z,13.30
2022-11-19T17:00:13.334Z,13.88
2022-11-19T17:02:41.684Z,7.00
2022-11-19T17:05:24.895Z,12.40
2022-11-19T17:07:54.055Z,12.18
2022-11-19T17:10:26.829Z,9.65
2022-11-19T17:12:56.151Z,10.05
2022-11-19T17:15:37.681Z,15.57
2022-11-19T17:18:18.261Z,9.73
2022-11-19T17:20:52.275Z,12.88
2022-11-19T17:23:22.720Z,10.55
2022-11-19T17:26:09.626Z,9.38
2022-11-19T17:28:54.713Z,8.00
2022-11-19T17:31:26.329Z,8.55
2022-11-19T17:34:17.196Z,15.55
2022-11-19T17:36:45.259Z,11.50
2022-11-19T17:39:15.135Z,13.55
2022-11-19T17:42:03.237Z,12.85
2022-11-19T17:44:32.151Z,12.65
2022-11-19T17:46:59.880Z,11.05
2022-11-19T17:49:27.683Z,14.35
2022-11-19T17:51:56.356Z,14.07
2022-11-19T17:54:24.434Z,16.30
2022-11-19T17:56:52.142Z,14.48
2022-11-19T17:59:19.841Z,15.95
2022-11-19T18:01:56.109Z,12.05
2022-11-19T18:04:25.981Z,12.93
2022-11-19T18:06:53.760Z,14.63
2022-11-19T18:09:21.712Z,13.75
2022-11-19T18:11:52.274Z,12.85
2022-11-19T18:14:22.316Z,12.68
2022-11-19T18:16:50.831Z,10.32
2022-11-19T18:19:27.369Z,19.58
2022-11-19T18:21:55.928Z,17.38
2022-11-19T18:24:25.528Z,16.30
2022-11-19T18:26:56.131Z,15.27
2022-11-19T18:29:24.196Z,12.27
2022-11-19T18:31:54.066Z,15.52
2022-11-19T18:34:23.746Z,13.77
2022-11-19T18:36:57.346Z,14.95
2022-11-19T18:39:25.467Z,17.35
2022-11-19T18:41:53.235Z,13.75
2022-11-19T18:44:37.821Z,13.02
2022-11-19T18:47:08.464Z,12.25
2022-11-19T18:49:39.027Z,11.43
2022-11-19T18:52:15.216Z,14.30
2022-11-19T18:54:43.484Z,17.35
2022-11-19T18:57:12.437Z,12.38
2022-11-19T18:59:40.254Z,18.08
2022-11-19T19:02:31.757Z,14.52
2022-11-19T19:05:28.597Z,15.85
2022-11-19T19:08:09.206Z,15.93
2022-11-19T19:10:39.499Z,11.50
2022-11-19T19:13:12.256Z,11.43
2022-11-19T19:15:50.691Z,15.05
2022-11-19T19:18:21.729Z,14.82
2022-11-19T19:20:59.729Z,15.13
2022-11-19T19:23:27.519Z,12.77
2022-11-19T19:26:09.036Z,17.25
2022-11-19T19:28:42.342Z,15.38
2022-11-19T19:31:16.402Z,14.20
2022-11-19T19:33:50.511Z,14.30
2022-11-19T19:36:30.754Z,15.32
2022-11-19T19:39:05.035Z,18.75
2022-11-19T19:41:34.175Z,14.68
2022-11-19T19:44:19.044Z,20.20
2022-11-19T19:46:50.082Z,15.77
2022-11-19T19:49:21.471Z,17.73
2022-11-19T19:52:19.537Z,13.15
2022-11-19T19:54:56.450Z,15.55
2022-11-19T19:57:30.617Z,12.95
2022-11-19T20:00:05.773Z,15.13
2022-11-19T20:02:48.060Z,12.23
2022-11-19T20:05:18.692Z,16.88
2022-11-19T20:07:56.162Z,15.87
2022-11-19T20:16:27.884Z,19.77
2022-11-19T20:18:56.549Z,12.40
2022-11-19T20:21:31.862Z,12.27
2022-11-19T20:23:59.902Z,13.32
2022-11-19T20:26:32.009Z,11.13
2022-11-19T20:29:05.454Z,13.23
2022-11-19T20:31:34.489Z,15.68
2022-11-19T20:34:04.186Z,16.17
2022-11-19T20:36:34.765Z,12.77
2022-11-19T20:39:02.957Z,13.82
2022-11-19T20:41:49.683Z,14.93
2022-11-19T20:44:22.608Z,15.52
2022-11-19T20:46:58.658Z,17.15
2022-11-19T20:49:31.686Z,15.02
2022-11-19T20:52:00.579Z,15.45
2022-11-19T20:54:28.933Z,17.65
2022-11-19T20:56:57.631Z,16.17
2022-11-19T20:59:26.599Z,13.32
2022-11-19T21:01:56.486Z,19.58
2022-11-19T21:04:26.378Z,19.85
2022-11-19T21:06:57.375Z,22.52
2022-11-19T21:09:25.633Z,18.33
2022-11-19T21:11:53.893Z,16.80
2022-11-19T21:14:22.017Z,17.42
2022-11-19T21:16:49.970Z,16.45
2022-11-19T21:19:18.194Z,19.33
2022-11-19T21:21:46.804Z,16.85
2022-11-19T21:24:14.897Z,16.27
2022-11-19T21:26:44.119Z,16.85
2022-11-19T21:29:12.962Z,16.00
2022-11-19T21:31:48.893Z,16.75
2022-11-19T21:34:20.747Z,14.10
2022-11-19T21:36:49.101Z,16.55
2022-11-19T21:39:20.704Z,15.43
2022-11-19T21:41:48.859Z,18.27
2022-11-19T21:44:21.531Z,20.02
2022-11-19T21:46:49.935Z,24.35
2022-11-19T21:49:18.121Z,23.95
2022-11-19T21:51:46.304Z,29.48
2022-11-19T21:54:13.954Z,22.42
2022-11-19T21:56:41.819Z,20.92
2022-11-19T21:59:09.626Z,22.80
2022-11-19T22:01:37.386Z,18.42
2022-11-19T22:04:05.315Z,22.20
2022-11-19T22:06:33.115Z,19.45
2022-11-19T22:09:00.866Z,19.85
2022-11-19T22:11:31.912Z,17.58
2022-11-19T22:14:05.922Z,20.50
2022-11-19T22:16:36.793Z,21.00
2022-11-19T22:19:05.946Z,18.30
2022-11-19T22:21:34.557Z,16.40
2022-11-19T22:24:02.507Z,14.13
2022-11-19T22:26:30.659Z,14.40
2022-11-19T22:28:58.677Z,20.42
2022-11-19T22:31:26.591Z,14.35
2022-11-19T22:33:55.111Z,18.77
2022-11-19T22:36:23.705Z,14.40
2022-11-19T22:38:52.119Z,14.48
2022-11-19T22:41:21.079Z,17.90
2022-11-19T22:43:49.147Z,15.88
2022-11-19T22:46:17.899Z,12.05
2022-11-19T22:48:45.874Z,18.45
2022-11-19T22:51:20.629Z,13.25
2022-11-19T22:53:49.827Z,16.35
2022-11-19T22:56:21.238Z,18.13
2022-11-19T22:58:52.909Z,16.25
2022-11-19T23:01:32.179Z,15.38
2022-11-19T23:04:02.316Z,15.02
2022-11-19T23:06:29.981Z,18.23
2022-11-19T23:08:57.894Z,15.80
2022-11-19T23:11:44.385Z,17.33
2022-11-19T23:14:14.843Z,13.48
2022-11-19T23:16:42.937Z,17.15
2022-11-19T23:19:14.446Z,16.73
2022-11-19T23:21:42.166Z,18.02
2022-11-19T23:24:10.599Z,19.70
2022-11-19T23:26:38.697Z,12.65
2022-11-19T23:29:07.125Z,15.38
2022-11-19T23:31:38.704Z,20.17
2022-11-19T23:34:06.690Z,17.40
2022-11-19T23:36:37.782Z,22.55
2022-11-19T23:39:10.509Z,15.23
2022-11-19T23:41:38.358Z,20.20
2022-11-19T23:44:06.130Z,18.02
2022-11-19T23:46:35.827Z,15.25
2022-11-19T23:49:04.082Z,20.40
2022-11-19T23:51:37.567Z,17.15
2022-11-19T23:54:06.302Z,15.80
2022-11-19T23:56:36.284Z,17.48
2022-11-19T23:59:06.237Z,15.07
